Time;durP1;ratioP1;P1;durP2;ratioP2;P2;SDS_P1;SDS_P2;PMS_P1;PMS_P2;Temp;Humidity;BMP_temperature;BMP_pressure;BME280_temperature;BME280_humidity;BME280_pressure;Samples;Min_cycle;Max_cycle;Signal;HPM_P1;HPM_P2
2021/08/05 00:00:30;;;;;;;8.27;7.47;;;19.10;97.30;;;;;;5024571;28;20056;-92
2021/08/05 00:02:56;;;;;;;7.88;6.82;;;19.10;97.30;;;;;;5036730;28;20106;-91
2021/08/05 00:05:22;;;;;;;7.53;6.82;;;19.10;97.40;;;;;;5030941;28;20129;-92
2021/08/05 00:08:03;;;;;;;7.53;6.22;;;19.10;97.30;;;;;;5026628;28;20041;-93
2021/08/05 00:10:34;;;;;;;7.20;6.25;;;19.10;97.30;;;;;;5026221;28;20063;-93
2021/08/05 00:13:00;;;;;;;7.97;7.18;;;19.10;97.30;;;;;;5018550;28;20107;-93
2021/08/05 00:15:33;;;;;;;8.88;7.05;;;19.10;97.30;;;;;;5019041;28;20037;-91
2021/08/05 00:18:02;;;;;;;6.85;6.25;;;19.10;97.40;;;;;;5018914;28;20045;-91
2021/08/05 00:20:48;;;;;;;7.53;6.82;;;19.10;97.40;;;;;;5018543;28;20124;-92
2021/08/05 00:23:25;;;;;;;7.38;6.68;;;19.10;97.40;;;;;;5019852;28;20034;-91
2021/08/05 00:26:02;;;;;;;7.60;6.90;;;19.10;97.30;;;;;;5018506;28;20458;-92
2021/08/05 00:28:33;;;;;;;7.28;6.28;;;19.10;97.40;;;;;;5026183;28;20052;-92
2021/08/05 00:31:01;;;;;;;6.43;5.78;;;19.10;97.40;;;;;;5034873;28;20420;-92
2021/08/05 00:33:40;;;;;;;9.30;7.60;;;19.10;97.40;;;;;;5032204;28;20046;-92
2021/08/05 00:36:49;;;;;;;8.23;7.43;;;19.00;97.50;;;;;;5046311;28;20041;-91
2021/08/05 00:39:47;;;;;;;8.30;7.50;;;19.00;97.60;;;;;;5044690;28;20052;-90
2021/08/05 00:42:16;;;;;;;8.68;7.88;;;19.00;97.70;;;;;;5039244;28;20045;-91
2021/08/05 00:45:16;;;;;;;7.78;6.97;;;19.00;97.80;;;;;;5028047;28;20095;-92
2021/08/05 00:48:03;;;;;;;8.65;7.85;;;18.90;97.80;;;;;;5018763;28;20306;-92
2021/08/05 00:50:32;;;;;;;10.20;7.45;;;19.00;97.90;;;;;;5018151;28;20033;-92
2021/08/05 00:53:03;;;;;;;9.30;8.10;;;18.90;97.90;;;;;;5019107;28;20100;-92
2021/08/05 00:55:29;;;;;;;10.27;8.95;;;18.90;97.90;;;;;;5037787;28;20421;-91
2021/08/05 00:57:57;;;;;;;10.05;8.02;;;18.90;97.90;;;;;;5030903;28;20096;-92
2021/08/05 01:00:28;;;;;;;9.15;8.25;;;18.90;98.00;;;;;;5018272;28;20382;-92
2021/08/05 01:03:05;;;;;;;9.68;8.45;;;18.80;98.10;;;;;;5024923;28;20030;-91
2021/08/05 01:05:37;;;;;;;8.85;7.88;;;18.80;98.10;;;;;;5018549;28;20045;-92
2021/08/05 01:08:13;;;;;;;9.57;8.68;;;18.80;98.10;;;;;;5017492;28;20045;-91
2021/08/05 01:11:01;;;;;;;9.73;8.82;;;18.80;98.20;;;;;;5029857;28;20038;-92
2021/08/05 01:14:33;;;;;;;9.65;8.75;;;18.80;98.30;;;;;;5019658;28;20049;-91
2021/08/05 01:17:08;;;;;;;9.05;8.07;;;18.80;98.40;;;;;;5022862;28;20056;-92
2021/08/05 01:19:53;;;;;;;9.95;9.05;;;18.80;98.40;;;;;;5018944;28;20037;-92
2021/08/05 01:22:45;;;;;;;9.20;8.38;;;18.80;98.40;;;;;;5023707;28;20042;-92
2021/08/05 01:25:23;;;;;;;9.93;8.93;;;18.80;98.30;;;;;;5025771;28;20033;-92
2021/08/05 01:27:51;;;;;;;10.80;9.65;;;18.80;98.40;;;;;;5039095;28;20037;-91
2021/08/05 01:30:18;;;;;;;8.75;7.95;;;18.70;98.40;;;;;;5036420;28;20010;-92
2021/08/05 01:32:45;;;;;;;8.55;7.70;;;18.70;98.40;;;;;;5028045;28;20033;-90
2021/08/05 01:35:12;;;;;;;8.30;7.50;;;18.70;98.40;;;;;;5041972;28;20037;-90
2021/08/05 01:37:39;;;;;;;9.27;8.30;;;18.70;98.40;;;;;;5043318;28;20072;-91
2021/08/05 01:40:12;;;;;;;11.07;8.73;;;18.70;98.40;;;;;;5055303;28;20056;-90
2021/08/05 01:42:48;;;;;;;8.23;7.43;;;18.70;98.40;;;;;;5047382;28;20041;-90
2021/08/05 01:45:43;;;;;;;8.25;7.45;;;18.70;98.30;;;;;;5027566;28;20034;-90
2021/08/05 01:48:20;;;;;;;8.93;8.05;;;18.80;98.30;;;;;;5024311;28;20075;-91
2021/08/05 01:51:02;;;;;;;8.95;8.13;;;18.80;98.40;;;;;;5022257;28;20421;-89
2021/08/05 01:53:35;;;;;;;10.43;8.75;;;18.70;98.50;;;;;;5040817;28;20061;-89
2021/08/05 01:56:09;;;;;;;10.25;8.75;;;18.70;98.50;;;;;;5040426;28;20140;-90
2021/08/05 01:58:35;;;;;;;9.57;8.77;;;18.70;98.50;;;;;;5029580;28;20046;-90
2021/08/05 02:08:08;;;;;;;10.18;9.07;;;18.70;98.50;;;;;;5046016;28;19916;-91
2021/08/05 02:10:38;;;;;;;11.13;9.85;;;18.60;98.50;;;;;;5036297;28;20087;-91
2021/08/05 02:16:19;;;;;;;8.98;8.10;;;18.60;98.80;;;;;;5023701;28;20045;-92
2021/08/05 02:19:14;;;;;;;;;;;;;;;;;;;;;
2021/08/05 02:21:41;;;;;;;12.98;11.32;;;18.60;98.90;;;;;;5022798;28;20514;-91
2021/08/05 02:24:37;;;;;;;;;;;;;;;;;;;;;
2021/08/05 02:27:26;;;;;;;11.32;10.23;;;18.60;98.90;;;;;;5021227;28;20420;-90
2021/08/05 02:30:20;;;;;;;11.65;10.50;;;18.70;98.90;;;;;;5021555;28;20057;-91
2021/08/05 02:32:47;;;;;;;12.63;11.38;;;18.60;98.90;;;;;;5025353;28;20068;-91
2021/08/05 02:35:13;;;;;;;12.38;11.18;;;18.70;99.00;;;;;;5045843;28;20481;-90
2021/08/05 02:37:39;;;;;;;12.75;11.45;;;18.60;99.00;;;;;;5038689;28;20132;-90
2021/08/05 02:40:07;;;;;;;12.27;11.02;;;18.60;99.00;;;;;;5029706;28;20064;-92
2021/08/05 02:42:44;;;;;;;14.80;13.27;;;18.70;99.30;;;;;;5020621;28;20038;-91
2021/08/05 02:45:20;;;;;;;15.15;13.63;;;18.70;99.00;;;;;;5032905;28;20044;-91
2021/08/05 02:47:46;;;;;;;16.50;12.93;;;18.70;99.10;;;;;;5001147;28;20042;-91
2021/08/05 02:50:13;;;;;;;14.30;12.90;;;18.60;99.10;;;;;;5016698;28;20044;-91
2021/08/05 02:52:39;;;;;;;12.75;11.38;;;18.60;99.10;;;;;;5031552;28;20090;-91
2021/08/05 02:55:06;;;;;;;14.13;12.73;;;18.60;99.20;;;;;;5038413;28;20126;-91
2021/08/05 02:57:33;;;;;;;12.98;11.73;;;18.60;99.10;;;;;;5022343;28;20042;-91
2021/08/05 03:00:01;;;;;;;13.98;12.23;;;18.60;99.10;;;;;;5023387;28;20112;-91
2021/08/05 03:02:27;;;;;;;14.77;12.77;;;18.60;99.10;;;;;;5032589;28;20040;-92
2021/08/05 03:05:00;;;;;;;14.50;12.95;;;18.60;99.10;;;;;;5031481;28;20135;-91
2021/08/05 03:07:34;;;;;;;15.00;13.50;;;18.60;99.10;;;;;;5020742;28;20048;-90
2021/08/05 03:09:59;;;;;;;13.38;11.85;;;18.60;99.20;;;;;;5019141;28;20041;-92
2021/08/05 03:12:28;;;;;;;14.75;12.80;;;18.60;99.20;;;;;;5020410;28;20708;-90
2021/08/05 03:15:18;;;;;;;13.98;12.15;;;18.60;99.20;;;;;;5020195;28;20073;-91
2021/08/05 03:17:44;;;;;;;12.07;10.88;;;18.60;99.20;;;;;;5019871;28;20132;-91
2021/08/05 03:20:16;;;;;;;16.75;12.77;;;18.60;99.20;;;;;;5018767;28;20069;-91
2021/08/05 03:22:47;;;;;;;14.37;12.07;;;18.60;99.10;;;;;;5024163;28;20033;-90
2021/08/05 03:25:13;;;;;;;12.13;10.93;;;18.60;99.10;;;;;;5020380;28;20034;-90
2021/08/05 03:27:42;;;;;;;12.98;11.73;;;18.60;99.20;;;;;;5019839;28;20309;-90
2021/08/05 03:30:12;;;;;;;12.73;11.43;;;18.60;99.20;;;;;;5030308;28;20062;-92
2021/08/05 03:32:45;;;;;;;12.90;11.60;;;18.60;99.30;;;;;;5027044;28;20096;-90
2021/08/05 03:35:11;;;;;;;11.85;10.80;;;18.50;99.30;;;;;;5022325;28;20305;-90
2021/08/05 03:37:41;;;;;;;12.50;11.10;;;18.60;99.30;;;;;;5021448;28;20056;-89
2021/08/05 03:40:14;;;;;;;13.07;11.50;;;18.60;99.20;;;;;;5039173;28;20029;-90
2021/08/05 03:42:52;;;;;;;11.63;10.43;;;18.60;99.20;;;;;;5033499;28;20064;-90
2021/08/05 03:45:23;;;;;;;14.43;11.07;;;18.60;99.20;;;;;;5036559;28;20128;-90
2021/08/05 03:47:49;;;;;;;13.43;12.02;;;18.60;99.20;;;;;;5036284;28;20046;-90
2021/08/05 03:50:18;;;;;;;15.43;11.48;;;18.60;99.20;;;;;;5042393;28;20125;-90
2021/08/05 03:52:57;;;;;;;13.40;10.98;;;18.60;99.20;;;;;;5038817;28;20124;-90
2021/08/05 03:55:40;;;;;;;11.60;10.10;;;18.60;99.20;;;;;;5004750;28;20115;-90
2021/08/05 03:58:09;;;;;;;12.55;10.65;;;18.50;99.20;;;;;;5037836;28;20128;-90
2021/08/05 04:00:39;;;;;;;12.00;10.90;;;18.50;99.10;;;;;;4999298;28;20037;-90
2021/08/05 04:03:26;;;;;;;13.15;11.85;;;18.50;99.20;;;;;;5033943;28;20036;-91
2021/08/05 04:05:54;;;;;;;12.35;11.07;;;18.50;99.20;;;;;;5033664;28;20398;-90
2021/08/05 04:08:27;;;;;;;13.98;11.20;;;18.50;99.20;;;;;;5027290;28;20046;-90
2021/08/05 04:11:10;;;;;;;13.73;11.48;;;18.50;99.30;;;;;;5024806;28;20041;-91
2021/08/05 04:13:46;;;;;;;13.32;11.95;;;18.50;99.50;;;;;;5025139;28;20099;-90
2021/08/05 04:16:12;;;;;;;12.50;11.00;;;18.60;99.40;;;;;;5023617;28;20084;-90
2021/08/05 04:18:56;;;;;;;13.02;11.50;;;18.50;99.40;;;;;;5028778;28;20030;-92
2021/08/05 04:21:24;;;;;;;14.10;10.85;;;18.50;99.40;;;;;;5021523;28;20033;-90
2021/08/05 04:23:59;;;;;;;13.32;11.63;;;18.60;99.50;;;;;;5032997;28;20616;-90
2021/08/05 04:26:48;;;;;;;13.70;12.30;;;18.60;99.40;;;;;;5031940;28;20046;-91
2021/08/05 04:29:24;;;;;;;13.52;12.13;;;18.60;99.40;;;;;;5019086;28;20133;-91
2021/08/05 04:32:10;;;;;;;12.75;11.38;;;18.60;99.40;;;;;;5019027;28;20049;-90
2021/08/05 04:34:52;;;;;;;13.55;11.98;;;18.60;99.40;;;;;;5013836;28;20050;-90
2021/08/05 04:37:32;;;;;;;13.13;11.93;;;18.60;99.40;;;;;;5027153;28;20042;-93
2021/08/05 04:43:12;;;;;;;12.30;11.07;;;18.60;99.50;;;;;;5012991;28;20524;-90
2021/08/05 04:46:04;;;;;;;12.40;11.10;;;18.60;99.50;;;;;;5017875;28;20045;-92
2021/08/05 04:48:36;;;;;;;11.63;9.88;;;18.60;99.30;;;;;;5013916;28;20691;-91
2021/08/05 04:51:23;;;;;;;;;;;;;;;;;;;;;
2021/08/05 04:54:14;;;;;;;10.52;9.27;;;18.70;99.20;;;;;;5017964;28;20045;-91
2021/08/05 04:56:40;;;;;;;11.50;9.30;;;18.70;99.20;;;;;;5032888;28;20162;-91
2021/08/05 04:59:06;;;;;;;11.52;10.38;;;18.70;99.20;;;;;;5033650;28;20384;-90
2021/08/05 05:01:37;;;;;;;11.30;10.02;;;18.70;99.10;;;;;;5022363;28;20125;-92
2021/08/05 05:04:12;;;;;;;10.45;9.30;;;18.70;99.10;;;;;;5038177;28;20033;-91
2021/08/05 05:06:40;;;;;;;10.05;9.10;;;18.70;98.70;;;;;;5038652;28;20097;-91
2021/08/05 06:51:59;;;;;;;4.63;3.78;;;20.30;94.80;;;;;;4902990;29;20043;-91
2021/08/05 09:30:25;;;;;;;;;;;;;;;;;;;;;
2021/08/05 11:35:29;;;;;;;7.60;5.30;;;23.00;93.60;;;;;;4994608;28;20083;-90
2021/08/05 11:38:34;;;;;;;7.18;5.25;;;22.90;93.30;;;;;;5018868;28;20044;-88
2021/08/05 12:42:20;;;;;;;6.00;5.40;;;22.40;94.40;;;;;;4921234;29;20107;-92
2021/08/05 12:45:40;;;;;;;;;;;;;;;;;;;;;
2021/08/05 14:16:15;;;;;;;;;;;;;;;;;;;;;
2021/08/05 14:22:43;;;;;;;2.80;2.38;;;21.30;95.10;;;;;;4938251;29;20030;-89
2021/08/05 14:25:33;;;;;;;3.97;2.88;;;21.20;95.20;;;;;;4929664;29;20044;-88
2021/08/05 14:28:25;;;;;;;3.45;3.15;;;21.20;95.20;;;;;;5018097;28;20604;-86
2021/08/05 14:31:07;;;;;;;3.10;2.83;;;21.20;95.70;;;;;;4997344;28;20463;-88
2021/08/05 14:33:59;;;;;;;;;;;;;;;;;;;;;
2021/08/05 14:36:43;;;;;;;3.95;3.45;;;21.20;96.60;;;;;;5041706;28;20033;-88
2021/08/05 14:39:26;;;;;;;3.50;3.20;;;21.20;96.70;;;;;;5047132;28;20034;-90
2021/08/05 14:41:57;;;;;;;4.95;3.45;;;21.20;96.60;;;;;;5042293;28;20033;-88
2021/08/05 14:45:16;;;;;;;3.13;2.85;;;21.30;96.80;;;;;;5041269;28;20448;-88
2021/08/05 14:48:18;;;;;;;5.70;3.38;;;21.40;95.70;;;;;;5028435;28;20080;-88
2021/08/05 14:51:19;;;;;;;4.65;3.35;;;21.50;96.10;;;;;;5039108;28;20389;-89
2021/08/05 14:54:24;;;;;;;3.10;2.80;;;21.40;96.20;;;;;;5051863;28;20121;-88
2021/08/05 14:57:31;;;;;;;5.10;2.67;;;21.40;95.70;;;;;;4996175;28;20114;-89
2021/08/05 15:00:24;;;;;;;3.47;2.55;;;21.40;95.70;;;;;;4983327;28;20085;-89
2021/08/05 15:06:08;;;;;;;2.20;2.00;;;21.40;95.60;;;;;;5020313;28;20033;-89
2021/08/05 15:08:39;;;;;;;2.28;1.90;;;21.30;95.40;;;;;;5039168;28;20038;-91
2021/08/05 15:11:10;;;;;;;3.20;1.58;;;21.30;95.20;;;;;;5035266;28;20070;-89
2021/08/05 15:13:36;;;;;;;1.42;1.33;;;21.20;94.40;;;;;;5039501;28;20381;-90
2021/08/05 15:16:14;;;;;;;1.42;0.93;;;21.20;94.00;;;;;;5039821;28;20068;-89
2021/08/05 16:24:22;;;;;;;1.20;1.10;;;20.50;94.20;;;;;;4921347;29;20046;-93
2021/08/05 17:28:31;;;;;;;1.08;0.82;;;20.20;92.90;;;;;;5001217;28;20041;-92
2021/08/05 17:31:29;;;;;;;;;;;;;;;;;;;;;
2021/08/05 17:48:03;;;;;;;;;;;;;;;;;;;;;
2021/08/05 17:54:58;;;;;;;1.00;0.80;;;19.90;93.70;;;;;;4988525;28;20116;-91
2021/08/05 18:01:20;;;;;;;1.88;1.10;;;19.80;94.20;;;;;;4983075;28;20066;-92
2021/08/05 18:07:46;;;;;;;2.08;1.55;;;19.80;95.00;;;;;;4996196;28;20141;-91
2021/08/05 18:10:16;;;;;;;3.83;1.63;;;19.70;95.10;;;;;;5060856;28;20029;-91
2021/08/05 18:23:14;;;;;;;2.85;1.65;;;19.60;95.40;;;;;;5045198;28;20088;-92
2021/08/05 18:26:32;;;;;;;3.13;1.80;;;19.60;95.50;;;;;;5052505;28;20405;-93
2021/08/05 18:29:01;;;;;;;2.10;1.90;;;19.60;95.50;;;;;;5047528;28;20071;-93
2021/08/05 18:31:57;;;;;;;3.22;2.38;;;19.60;95.50;;;;;;5058100;28;20033;-92
2021/08/05 18:34:33;;;;;;;3.83;2.20;;;19.60;95.50;;;;;;5059155;28;20108;-94
2021/08/05 18:37:10;;;;;;;2.22;2.03;;;19.60;95.70;;;;;;5042679;28;20060;-93
2021/08/05 18:43:04;;;;;;;2.70;2.08;;;19.50;95.80;;;;;;5043346;28;20053;-94
2021/08/05 18:46:07;;;;;;;4.35;2.13;;;19.50;95.80;;;;;;5042680;28;20064;-92
2021/08/05 18:49:00;;;;;;;2.70;1.70;;;19.40;95.80;;;;;;5051475;28;20045;-93
2021/08/05 18:52:10;;;;;;;2.33;1.83;;;19.40;95.80;;;;;;5042873;28;20305;-92
2021/08/05 18:55:09;;;;;;;2.50;2.20;;;19.40;95.80;;;;;;5041685;28;20037;-92
2021/08/05 19:01:10;;;;;;;3.28;1.80;;;19.40;96.20;;;;;;5038277;28;20099;-93
2021/08/05 19:03:45;;;;;;;2.55;2.35;;;19.30;96.50;;;;;;5039655;28;20041;-92
2021/08/05 19:06:27;;;;;;;2.75;1.80;;;19.20;96.70;;;;;;5049814;28;20037;-93
2021/08/05 19:09:22;;;;;;;2.35;1.63;;;19.20;96.70;;;;;;5048541;28;20044;-91
2021/08/05 19:12:22;;;;;;;2.92;2.10;;;19.20;96.50;;;;;;5046766;28;20049;-93
2021/08/05 19:14:50;;;;;;;3.28;1.70;;;19.20;96.50;;;;;;5024010;28;20081;-93
2021/08/05 19:17:25;;;;;;;2.50;2.03;;;19.20;96.60;;;;;;5024893;28;20389;-90
2021/08/05 19:19:53;;;;;;;4.15;2.33;;;19.20;96.90;;;;;;5024479;28;20038;-93
2021/08/05 19:22:19;;;;;;;2.15;1.85;;;19.20;97.00;;;;;;5024944;28;20045;-91
2021/08/05 19:24:45;;;;;;;3.85;1.88;;;19.10;96.90;;;;;;5024539;28;20037;-92
2021/08/05 19:27:19;;;;;;;2.05;1.85;;;19.20;97.00;;;;;;5042055;28;20076;-92
2021/08/05 19:30:06;;;;;;;3.10;2.20;;;19.10;97.20;;;;;;5037506;28;20042;-92
2021/08/05 19:32:57;;;;;;;2.15;1.95;;;19.10;97.10;;;;;;5041756;28;20084;-93
2021/08/05 19:52:37;;;;;;;3.83;3.17;;;19.00;97.60;;;;;;4904557;29;20080;-92
2021/08/05 19:58:09;;;;;;;3.03;2.40;;;19.00;98.00;;;;;;4906083;29;20362;-94
2021/08/05 20:00:35;;;;;;;5.00;2.80;;;19.00;98.20;;;;;;4885838;29;20041;-95
2021/08/05 20:03:01;;;;;;;4.32;2.42;;;18.90;98.30;;;;;;4962038;28;20051;-94
2021/08/05 20:05:28;;;;;;;3.75;3.33;;;18.90;98.30;;;;;;5051813;28;20132;-92
2021/08/05 20:07:55;;;;;;;5.35;3.33;;;18.90;98.40;;;;;;5055976;28;20063;-92
2021/08/05 20:10:20;;;;;;;6.03;3.75;;;18.90;98.40;;;;;;5039255;28;20041;-93
2021/08/05 20:12:46;;;;;;;4.55;3.45;;;18.90;98.50;;;;;;5039540;28;20045;-94
2021/08/05 20:15:15;;;;;;;5.43;3.13;;;18.90;98.50;;;;;;5052818;28;20040;-92
2021/08/05 20:17:47;;;;;;;4.47;3.72;;;18.90;98.50;;;;;;5067976;28;20052;-93
2021/08/05 20:20:14;;;;;;;4.18;3.75;;;18.90;98.50;;;;;;5039914;28;20037;-93
2021/08/05 20:22:45;;;;;;;4.53;3.30;;;18.80;98.50;;;;;;5045673;28;20068;-91
2021/08/05 20:25:16;;;;;;;4.95;3.63;;;18.80;98.50;;;;;;5051964;28;20041;-93
2021/08/05 20:27:42;;;;;;;4.43;3.90;;;18.80;98.60;;;;;;5039561;28;20044;-94
2021/08/05 20:30:09;;;;;;;4.40;4.00;;;18.80;98.60;;;;;;5046062;28;20072;-92
2021/08/05 20:32:35;;;;;;;5.78;4.07;;;18.80;98.70;;;;;;5058584;28;20557;-92
2021/08/05 20:35:01;;;;;;;5.63;4.35;;;18.80;98.80;;;;;;5058547;28;20052;-93
2021/08/05 20:37:28;;;;;;;6.20;4.68;;;18.70;98.80;;;;;;5042632;28;20040;-93
2021/08/05 20:39:56;;;;;;;7.88;4.85;;;18.80;98.90;;;;;;5040349;28;20040;-92
2021/08/05 20:42:22;;;;;;;7.50;5.18;;;18.70;98.90;;;;;;5047606;28;20033;-92
2021/08/05 20:44:48;;;;;;;8.02;5.50;;;18.80;99.00;;;;;;5058789;28;20288;-93
2021/08/05 20:47:18;;;;;;;5.75;4.85;;;18.80;99.00;;;;;;5056144;28;20285;-92
2021/08/05 20:49:44;;;;;;;5.85;5.07;;;18.80;99.10;;;;;;5060823;28;20040;-93
2021/08/05 20:52:11;;;;;;;7.43;5.68;;;18.80;99.10;;;;;;5041782;28;20041;-93
2021/08/05 20:54:36;;;;;;;9.00;5.18;;;18.80;99.10;;;;;;5039858;28;20041;-94
2021/08/05 20:57:05;;;;;;;6.78;5.03;;;18.80;99.20;;;;;;5046360;28;20033;-93
2021/08/05 20:59:31;;;;;;;6.15;5.10;;;18.80;99.20;;;;;;5065816;28;20037;-93
2021/08/05 21:01:57;;;;;;;6.10;5.45;;;18.80;99.10;;;;;;5059228;28;20036;-93
2021/08/05 21:04:26;;;;;;;7.07;4.70;;;18.70;99.10;;;;;;5039433;28;20356;-94
2021/08/05 21:06:52;;;;;;;6.63;5.80;;;18.80;99.10;;;;;;5050335;28;20033;-92
2021/08/05 21:09:18;;;;;;;6.35;5.28;;;18.70;99.10;;;;;;5044927;28;20038;-92
2021/08/05 21:11:44;;;;;;;6.82;5.72;;;18.80;99.10;;;;;;5054818;28;20048;-92
2021/08/05 21:14:12;;;;;;;6.95;5.35;;;18.70;99.10;;;;;;5050964;28;20045;-91
2021/08/05 21:16:40;;;;;;;7.03;5.95;;;18.70;99.10;;;;;;5038763;28;20045;-93
2021/08/05 21:19:06;;;;;;;7.55;5.82;;;18.70;99.20;;;;;;5038478;28;20034;-93
2021/08/05 21:21:31;;;;;;;7.15;5.72;;;18.70;99.20;;;;;;5052559;28;20030;-92
2021/08/05 21:23:59;;;;;;;8.10;5.63;;;18.70;99.30;;;;;;5045475;28;20045;-93
2021/08/05 21:26:27;;;;;;;7.32;5.85;;;18.70;99.30;;;;;;5053555;28;20099;-92
2021/08/05 21:28:55;;;;;;;6.32;5.72;;;18.70;99.40;;;;;;5045433;28;20041;-92
2021/08/05 21:31:21;;;;;;;6.55;5.53;;;18.70;99.50;;;;;;5039155;28;20354;-93
2021/08/05 21:33:47;;;;;;;8.70;6.50;;;18.70;99.50;;;;;;5041125;28;20037;-93
2021/08/05 21:36:12;;;;;;;7.40;5.75;;;18.70;99.50;;;;;;5038720;28;20037;-93
2021/08/05 21:38:40;;;;;;;7.40;6.35;;;18.70;99.50;;;;;;5041059;28;20048;-93
2021/08/05 21:41:06;;;;;;;10.55;5.68;;;18.60;99.50;;;;;;5041669;28;20092;-93
2021/08/05 21:43:33;;;;;;;7.40;5.82;;;18.60;99.50;;;;;;5056100;28;20061;-93
2021/08/05 21:46:01;;;;;;;6.22;5.60;;;18.60;99.60;;;;;;5045949;28;20033;-93
2021/08/05 21:48:27;;;;;;;6.88;6.13;;;18.60;99.60;;;;;;5042220;28;20091;-93
2021/08/05 21:50:53;;;;;;;8.63;6.65;;;18.60;99.80;;;;;;5043649;28;20037;-94
2021/08/05 21:53:24;;;;;;;6.45;5.72;;;18.60;99.60;;;;;;5061624;28;20037;-92
2021/08/05 21:55:52;;;;;;;10.52;6.85;;;18.60;99.60;;;;;;5054468;28;20045;-95
2021/08/05 21:58:18;;;;;;;8.38;6.60;;;18.60;99.70;;;;;;5053470;28;20068;-93
2021/08/05 22:00:43;;;;;;;9.48;7.63;;;18.60;99.70;;;;;;5042203;28;20076;-93
2021/08/05 22:03:09;;;;;;;8.93;7.90;;;18.60;99.70;;;;;;5047238;28;20037;-92
2021/08/05 22:05:37;;;;;;;8.20;7.13;;;18.60;99.80;;;;;;5050180;28;20045;-93
2021/08/05 22:08:06;;;;;;;13.40;7.65;;;18.60;99.80;;;;;;5041536;28;20120;-93
2021/08/05 22:10:32;;;;;;;9.00;7.68;;;18.60;99.80;;;;;;5041831;28;20037;-92
2021/08/05 22:13:00;;;;;;;8.13;7.22;;;18.60;99.70;;;;;;5044331;28;20041;-94
2021/08/05 22:15:26;;;;;;;9.88;8.60;;;18.60;99.70;;;;;;5058611;28;20045;-94
2021/08/05 22:17:51;;;;;;;9.07;8.10;;;18.60;99.70;;;;;;5051591;28;20381;-92
2021/08/05 22:20:17;;;;;;;9.77;7.97;;;18.60;99.80;;;;;;5042846;28;20038;-94
2021/08/05 22:22:43;;;;;;;9.30;8.38;;;18.60;99.80;;;;;;5061155;28;20044;-95
2021/08/05 22:25:09;;;;;;;8.40;7.57;;;18.50;99.80;;;;;;5041397;28;20037;-94
2021/08/05 22:27:34;;;;;;;10.52;8.80;;;18.50;99.80;;;;;;5042764;28;20037;-94
2021/08/05 22:30:00;;;;;;;10.80;7.93;;;18.50;99.90;;;;;;5050841;28;20495;-94
2021/08/05 22:32:26;;;;;;;9.25;8.32;;;18.50;99.90;;;;;;5040844;28;20068;-94
2021/08/05 22:34:51;;;;;;;9.10;8.13;;;18.50;99.90;;;;;;5041504;28;20041;-94
2021/08/05 22:37:17;;;;;;;9.35;8.18;;;18.40;99.90;;;;;;5040709;28;20045;-94
2021/08/05 22:39:43;;;;;;;8.07;7.28;;;18.40;99.90;;;;;;5053489;28;20206;-94
2021/08/05 22:42:11;;;;;;;8.93;7.28;;;18.40;99.90;;;;;;5049175;28;20033;-94
2021/08/05 22:44:46;;;;;;;9.05;7.43;;;18.40;99.90;;;;;;5040529;28;20030;-93
2021/08/05 22:47:11;;;;;;;8.05;7.25;;;18.50;99.90;;;;;;5048231;28;20032;-93
2021/08/05 22:49:37;;;;;;;10.30;7.90;;;18.40;99.90;;;;;;5042978;28;20105;-93
2021/08/05 22:52:04;;;;;;;8.15;7.03;;;18.40;99.90;;;;;;5057025;28;20025;-93
2021/08/05 22:54:30;;;;;;;7.22;6.28;;;18.40;99.90;;;;;;5044253;28;20120;-94
2021/08/05 22:56:59;;;;;;;9.27;7.18;;;18.40;99.90;;;;;;5039956;28;20112;-92
2021/08/05 22:59:27;;;;;;;8.50;6.65;;;18.40;99.90;;;;;;5040212;28;20164;-93
2021/08/05 23:01:53;;;;;;;8.55;6.68;;;18.40;99.80;;;;;;5040506;28;20336;-92
2021/08/05 23:04:19;;;;;;;8.32;7.15;;;18.40;99.80;;;;;;5039994;28;20042;-92
2021/08/05 23:06:50;;;;;;;11.45;6.80;;;18.40;99.80;;;;;;5040558;28;20037;-92
2021/08/05 23:09:20;;;;;;;8.05;6.38;;;18.40;99.80;;;;;;5042895;28;20412;-91
2021/08/05 23:11:49;;;;;;;7.93;6.50;;;18.30;99.70;;;;;;5061074;28;20033;-93
2021/08/05 23:14:14;;;;;;;11.13;7.03;;;18.30;99.70;;;;;;5059483;28;20407;-91
2021/08/05 23:16:40;;;;;;;7.53;6.38;;;18.30;99.70;;;;;;5045932;28;20049;-93
2021/08/05 23:19:06;;;;;;;7.88;6.75;;;18.30;99.60;;;;;;5055864;28;20397;-92
2021/08/05 23:21:31;;;;;;;7.78;6.47;;;18.30;99.60;;;;;;5052498;28;20060;-93
2021/08/05 23:23:57;;;;;;;7.88;6.90;;;18.30;99.60;;;;;;5040089;28;20038;-93
2021/08/05 23:26:22;;;;;;;10.18;7.60;;;18.30;99.60;;;;;;5052954;28;20037;-93
2021/08/05 23:28:48;;;;;;;8.20;6.78;;;18.30;99.60;;;;;;5048010;28;20053;-92
2021/08/05 23:31:13;;;;;;;8.55;7.70;;;18.20;99.50;;;;;;5053052;28;20048;-93
2021/08/05 23:33:39;;;;;;;8.02;7.05;;;18.20;99.60;;;;;;5044154;28;20467;-94
2021/08/05 23:36:05;;;;;;;8.10;7.15;;;18.20;99.60;;;;;;5038891;28;20064;-94
2021/08/05 23:38:30;;;;;;;10.05;7.10;;;18.10;99.60;;;;;;5039834;28;20247;-94
2021/08/05 23:40:56;;;;;;;9.05;6.78;;;18.10;99.60;;;;;;5039695;28;20033;-92
2021/08/05 23:43:22;;;;;;;7.70;6.68;;;18.10;99.60;;;;;;5040181;28;20051;-94
2021/08/05 23:45:47;;;;;;;7.15;6.20;;;18.00;99.60;;;;;;5045683;28;20118;-93
2021/08/05 23:48:13;;;;;;;11.48;6.25;;;18.00;99.60;;;;;;5054895;28;20041;-94
2021/08/05 23:50:39;;;;;;;9.90;7.55;;;18.00;99.60;;;;;;5039059;28;20090;-93
2021/08/05 23:53:04;;;;;;;7.30;6.57;;;18.00;99.70;;;;;;5035892;28;20046;-93
2021/08/05 23:55:32;;;;;;;8.98;7.78;;;17.90;99.60;;;;;;5053683;28;20183;-92
2021/08/05 23:57:59;;;;;;;7.57;6.30;;;17.90;99.70;;;;;;5059500;28;20041;-94
